Time;durP1;ratioP1;P1;durP2;ratioP2;P2;SDS_P1;SDS_P2;PMS_P1;PMS_P2;Temp;Humidity;BMP_temperature;BMP_pressure;BME280_temperature;BME280_humidity;BME280_pressure;Samples;Min_cycle;Max_cycle;Signal;HPM_P1;HPM_P2
2021/12/25 00:02:28;;;;;;;12.87;8.60;;;;;;;-1.67;100.00;95524.97;10496506;28;20191;-62
2021/12/25 00:07:29;;;;;;;13.17;8.20;;;;;;;-1.67;100.00;95534.41;10496230;28;20193;-63
2021/12/25 00:12:30;;;;;;;15.43;9.83;;;;;;;-1.58;100.00;95536.31;10494731;28;20298;-62
2021/12/25 00:17:32;;;;;;;13.47;9.50;;;;;;;-1.61;100.00;95546.81;10454456;28;20667;-63
2021/12/25 00:22:32;;;;;;;12.83;8.67;;;;;;;-1.58;100.00;95550.91;10455030;28;20279;-63
2021/12/25 00:27:42;;;;;;;14.00;8.70;;;;;;;-1.55;100.00;95569.47;10454900;28;20653;-62
2021/12/25 00:32:54;;;;;;;13.10;8.80;;;;;;;-1.55;100.00;95558.38;10413496;28;20224;-63
2021/12/25 00:37:55;;;;;;;7.60;5.70;;;;;;;-1.77;100.00;95571.97;10446779;28;20669;-63
2021/12/25 00:42:55;;;;;;;6.37;3.50;;;;;;;-2.21;100.00;95569.00;10453965;28;20736;-62
2021/12/25 00:47:56;;;;;;;4.67;3.40;;;;;;;-2.22;100.00;95567.34;10402061;28;20254;-62
2021/12/25 00:52:56;;;;;;;4.27;3.27;;;;;;;-2.45;100.00;95572.34;10452781;28;20226;-63
2021/12/25 00:57:57;;;;;;;3.67;3.07;;;;;;;-2.57;100.00;95586.00;10417388;28;20200;-62
2021/12/25 01:02:57;;;;;;;3.20;2.20;;;;;;;-2.61;100.00;95594.81;10426975;28;20212;-63
2021/12/25 01:07:58;;;;;;;3.77;2.70;;;;;;;-2.58;100.00;95592.84;10425279;28;20193;-61
2021/12/25 01:13:09;;;;;;;2.93;2.43;;;;;;;-2.64;100.00;95602.72;10439117;28;20588;-62
2021/12/25 01:23:55;;;;;;;3.83;3.07;;;;;;;-2.66;100.00;95601.97;10475759;28;20203;-63
2021/12/25 01:29:47;;;;;;;4.73;3.67;;;;;;;-2.65;100.00;95603.63;10475738;28;20274;-63
2021/12/25 01:51:15;;;;;;;10.80;5.70;;;;;;;-2.49;100.00;95624.75;10475903;28;20282;-63
2021/12/25 01:56:16;;;;;;;10.40;5.97;;;;;;;-2.40;100.00;95623.31;10474889;28;20703;-63
2021/12/25 02:01:16;;;;;;;8.07;5.53;;;;;;;-2.45;100.00;95633.88;10473929;28;20570;-63
2021/12/25 02:06:17;;;;;;;7.33;4.60;;;;;;;-2.50;100.00;95628.22;10474676;28;20289;-62
2021/12/25 02:11:17;;;;;;;6.33;4.33;;;;;;;-2.57;100.00;95632.16;10473810;28;20201;-63
2021/12/25 02:16:22;;;;;;;6.03;4.60;;;;;;;-2.48;100.00;95631.53;10491992;28;20230;-63
2021/12/25 02:21:37;;;;;;;7.53;5.00;;;;;;;-2.49;100.00;95634.19;10474386;28;20179;-62
2021/12/25 02:26:40;;;;;;;4.33;3.60;;;;;;;-2.49;100.00;95632.44;10492601;28;20231;-63
2021/12/25 02:31:41;;;;;;;5.03;3.53;;;;;;;-2.46;100.00;95639.13;10480506;28;20677;-63
2021/12/25 02:36:41;;;;;;;4.17;2.60;;;;;;;-2.46;100.00;95646.81;10499709;28;20210;-62
2021/12/25 02:41:42;;;;;;;3.23;2.70;;;;;;;-2.60;100.00;95652.88;10481206;28;20927;-63
2021/12/25 02:46:43;;;;;;;5.23;3.20;;;;;;;-2.66;100.00;95658.38;10481455;28;20203;-63
2021/12/25 02:51:45;;;;;;;4.20;2.53;;;;;;;-2.62;100.00;95652.13;10469047;28;20698;-62
2021/12/25 02:56:45;;;;;;;4.53;2.77;;;;;;;-2.74;100.00;95646.06;10481109;28;20215;-63
2021/12/25 03:01:47;;;;;;;3.83;2.80;;;;;;;-2.73;100.00;95663.09;10482078;28;20194;-63
2021/12/25 03:06:47;;;;;;;7.17;3.13;;;;;;;-2.66;100.00;95666.06;10479828;28;20199;-63
2021/12/25 03:11:47;;;;;;;3.73;2.70;;;;;;;-2.77;100.00;95661.63;10481285;28;20573;-64
2021/12/25 03:16:48;;;;;;;4.50;2.50;;;;;;;-2.88;100.00;95675.16;10470108;22;20248;-64
2021/12/25 03:21:48;;;;;;;5.20;2.80;;;;;;;-2.82;100.00;95668.81;10481101;28;20578;-65
2021/12/25 03:27:42;;;;;;;5.97;3.20;;;;;;;-3.20;100.00;95677.22;10463723;28;20298;-66
2021/12/25 03:32:53;;;;;;;4.27;3.37;;;;;;;-3.32;100.00;95707.84;10421404;28;20228;-64
2021/12/25 04:02:05;;;;;;;4.20;3.33;;;;;;;-4.09;100.00;95725.28;10399387;28;20637;-66
2021/12/25 04:07:18;;;;;;;5.70;2.90;;;;;;;-4.22;100.00;95729.50;10399165;28;20278;-65
2021/12/25 04:12:20;;;;;;;2.93;2.50;;;;;;;-4.26;100.00;95738.25;10440111;28;20273;-65
2021/12/25 04:17:20;;;;;;;5.97;2.63;;;;;;;-4.25;100.00;95729.69;10436970;28;20235;-65
2021/12/25 04:22:28;;;;;;;2.70;2.33;;;;;;;-4.31;100.00;95720.63;10438681;28;20184;-66
2021/12/25 04:27:28;;;;;;;5.20;2.50;;;;;;;-4.44;100.00;95725.66;10430803;28;20219;-66
2021/12/25 04:32:57;;;;;;;3.50;2.57;;;;;;;-4.49;100.00;95728.47;10456409;28;20240;-67
2021/12/25 04:49:58;;;;;;;5.60;3.07;;;;;;;-4.70;100.00;95739.91;10439481;28;20241;-65
2021/12/25 05:06:23;;;;;;;5.03;3.53;;;;;;;-4.93;100.00;95742.06;10450060;28;20774;-65
2021/12/25 05:11:23;;;;;;;5.07;3.60;;;;;;;-4.98;100.00;95754.22;10477510;28;20183;-64
2021/12/25 05:22:40;;;;;;;8.13;3.03;;;;;;;-5.02;100.00;95755.34;10445147;28;20278;-64
2021/12/25 05:27:41;;;;;;;6.40;3.33;;;;;;;-5.00;100.00;95755.25;10473759;28;20774;-64
2021/12/25 05:32:42;;;;;;;6.13;3.53;;;;;;;-5.02;100.00;95763.00;10479728;28;20211;-65
2021/12/25 05:38:14;;;;;;;5.37;3.80;;;;;;;-5.17;100.00;95774.88;10428192;28;20199;-63
2021/12/25 05:43:41;;;;;;;7.33;3.67;;;;;;;-5.22;100.00;95776.84;10453423;28;20195;-64
2021/12/25 05:48:42;;;;;;;6.33;3.90;;;;;;;-5.23;100.00;95780.31;10474788;28;20214;-65
2021/12/25 05:54:12;;;;;;;7.67;3.63;;;;;;;-5.31;100.00;95769.66;10452439;28;20225;-64
2021/12/25 05:59:41;;;;;;;5.70;4.30;;;;;;;-5.26;100.00;95777.91;10413004;28;20701;-64
2021/12/25 06:04:53;;;;;;;5.83;3.70;;;;;;;-5.24;100.00;95781.19;10439045;28;20639;-64
2021/12/25 06:09:54;;;;;;;10.00;4.93;;;;;;;-5.17;100.00;95800.41;10461714;28;20205;-62
2021/12/25 06:14:59;;;;;;;8.00;4.57;;;;;;;-5.38;100.00;95797.25;10485773;28;20235;-63
2021/12/25 06:20:26;;;;;;;8.70;4.80;;;;;;;-5.31;100.00;95823.28;10365927;28;20208;-63
2021/12/25 06:25:53;;;;;;;10.67;4.90;;;;;;;-5.26;100.00;95816.22;10407274;28;20206;-63
2021/12/25 06:31:15;;;;;;;6.13;4.03;;;;;;;-5.32;100.00;95809.69;10378329;28;20694;-63
2021/12/25 06:36:39;;;;;;;7.40;4.53;;;;;;;-5.30;100.00;95820.63;10454940;28;20218;-63
2021/12/25 06:42:38;;;;;;;;;;;;;;;;;;;;;
2021/12/25 06:47:41;;;;;;;8.23;4.10;;;;;;;-5.34;100.00;95829.38;10414852;28;20265;-64
2021/12/25 06:53:15;;;;;;;8.10;4.90;;;;;;;-5.32;100.00;95827.56;10422557;28;20218;-63
2021/12/25 06:58:44;;;;;;;6.90;4.57;;;;;;;-5.25;100.00;95839.09;10381042;28;20214;-63
2021/12/25 07:03:44;;;;;;;6.70;4.57;;;;;;;-5.21;100.00;95843.16;10393742;28;20406;-63
2021/12/25 07:09:30;;;;;;;8.53;5.13;;;;;;;-5.28;100.00;95844.38;10380127;28;20239;-63
2021/12/25 07:27:53;;;;;;;15.00;4.77;;;;;;;-5.22;100.00;95841.50;10383516;28;20203;-64
2021/12/25 07:39:07;;;;;;;7.30;5.67;;;;;;;-5.22;100.00;95867.03;10410676;28;20231;-63
2021/12/25 07:44:38;;;;;;;11.43;5.97;;;;;;;-5.13;100.00;95867.44;10417910;28;20309;-63
2021/12/25 07:49:38;;;;;;;9.60;6.40;;;;;;;-5.14;100.00;95870.91;10437233;28;20200;-64
2021/12/25 07:54:39;;;;;;;12.53;6.47;;;;;;;-5.13;100.00;95854.66;10456273;28;20598;-63
2021/12/25 07:59:39;;;;;;;11.27;6.17;;;;;;;-5.11;100.00;95865.63;10457455;28;20685;-63
2021/12/25 08:04:39;;;;;;;11.03;6.80;;;;;;;-5.06;100.00;95867.00;10463935;28;20235;-62
2021/12/25 08:09:42;;;;;;;13.63;7.33;;;;;;;-4.97;100.00;95867.44;10456421;28;20199;-64
2021/12/25 08:15:14;;;;;;;19.63;7.67;;;;;;;-5.16;100.00;95875.25;10445990;28;20311;-63
2021/12/25 08:20:40;;;;;;;13.83;7.40;;;;;;;-4.94;100.00;95878.31;10387627;28;20295;-62
2021/12/25 08:26:00;;;;;;;14.50;8.30;;;;;;;-4.87;100.00;95887.31;10452105;28;20617;-65
2021/12/25 08:31:45;;;;;;;19.60;9.70;;;;;;;-4.82;100.00;95876.84;10437862;28;20290;-62
2021/12/25 08:37:05;;;;;;;16.17;8.60;;;;;;;-4.60;100.00;95876.47;10376620;28;20221;-65
2021/12/25 08:42:06;;;;;;;14.27;7.40;;;;;;;-4.55;100.00;95871.13;10412936;28;20191;-65
2021/12/25 08:47:10;;;;;;;19.37;7.70;;;;;;;-4.66;100.00;95872.53;10414788;28;20208;-65
2021/12/25 08:52:13;;;;;;;14.50;7.67;;;;;;;-4.54;100.00;95872.78;10412521;28;20250;-64
2021/12/25 08:57:16;;;;;;;13.77;7.60;;;;;;;-4.72;100.00;95869.50;10419175;28;20710;-65
2021/12/25 09:02:17;;;;;;;9.93;6.53;;;;;;;-4.76;100.00;95876.50;10388834;28;20636;-64
2021/12/25 09:07:18;;;;;;;12.23;6.67;;;;;;;-4.93;100.00;95868.91;10430854;28;20220;-64
2021/12/25 09:12:20;;;;;;;10.37;6.70;;;;;;;-4.81;100.00;95878.47;10415740;28;20211;-64
2021/12/25 09:17:21;;;;;;;11.73;6.97;;;;;;;-4.69;100.00;95882.91;10479044;22;20243;-62
2021/12/25 09:22:21;;;;;;;10.07;6.23;;;;;;;-4.70;100.00;95904.28;10493532;28;20255;-65
2021/12/25 09:27:22;;;;;;;14.00;6.90;;;;;;;-4.72;100.00;95915.47;10474230;28;20214;-65
2021/12/25 09:32:22;;;;;;;11.13;5.43;;;;;;;-4.55;100.00;95914.56;10472216;28;20223;-62
2021/12/25 09:37:22;;;;;;;12.83;6.57;;;;;;;-4.42;100.00;95919.84;10465807;28;20215;-62
2021/12/25 09:42:24;;;;;;;14.93;10.37;;;;;;;-4.43;100.00;95919.00;10453089;28;20272;-61
2021/12/25 09:47:25;;;;;;;20.10;8.87;;;;;;;-4.08;100.00;95911.09;10450342;28;20246;-62
2021/12/25 09:52:25;;;;;;;13.20;7.50;;;;;;;-4.00;100.00;95911.47;10451636;28;20733;-63
2021/12/25 09:57:26;;;;;;;9.50;6.20;;;;;;;-3.91;100.00;95911.88;10451973;28;20212;-64
2021/12/25 10:02:27;;;;;;;12.07;6.00;;;;;;;-3.61;100.00;95928.03;10452344;28;20187;-64
2021/12/25 10:07:30;;;;;;;11.20;5.37;;;;;;;-3.42;100.00;95932.06;10452293;28;20716;-64
2021/12/25 10:12:40;;;;;;;7.10;5.50;;;;;;;-3.59;100.00;95927.94;10451943;28;20216;-63
2021/12/25 10:17:48;;;;;;;7.63;5.17;;;;;;;-3.32;100.00;95925.50;10452156;28;20382;-64
2021/12/25 10:23:08;;;;;;;7.77;5.53;;;;;;;-3.60;100.00;95929.69;10451621;28;20196;-65
2021/12/25 10:28:09;;;;;;;10.20;5.33;;;;;;;-3.16;100.00;95950.22;10451697;28;20249;-64
2021/12/25 10:33:38;;;;;;;7.60;5.03;;;;;;;-3.18;100.00;95950.31;10451154;28;20253;-63
2021/12/25 10:38:39;;;;;;;9.03;6.67;;;;;;;-3.24;100.00;95948.91;10451389;28;20224;-64
2021/12/25 10:43:42;;;;;;;7.57;4.70;;;;;;;-2.93;100.00;95956.50;10450957;28;20188;-64
2021/12/25 10:48:42;;;;;;;6.47;5.00;;;;;;;-3.15;100.00;95957.81;10451452;28;20295;-64
2021/12/25 10:53:51;;;;;;;8.90;5.03;;;;;;;-3.36;100.00;95949.63;10457651;28;20306;-64
2021/12/25 10:59:02;;;;;;;7.80;4.30;;;;;;;-3.58;100.00;95935.53;10458284;28;20243;-65
2021/12/25 11:04:04;;;;;;;7.90;4.80;;;;;;;-3.47;100.00;95934.91;10458568;28;20188;-64
2021/12/25 11:09:07;;;;;;;10.83;4.97;;;;;;;-3.66;100.00;95931.75;10458175;28;20220;-65
2021/12/25 11:14:12;;;;;;;9.30;5.20;;;;;;;-3.68;100.00;95926.72;10458549;28;20433;-66
2021/12/25 11:19:27;;;;;;;10.00;4.60;;;;;;;-3.76;100.00;95921.25;10458081;28;20228;-65
2021/12/25 11:24:38;;;;;;;6.63;4.27;;;;;;;-3.99;100.00;95923.38;10458381;28;20179;-65
2021/12/25 11:29:38;;;;;;;9.03;4.63;;;;;;;-3.97;100.00;95931.78;10457982;28;20187;-64
2021/12/25 11:34:39;;;;;;;5.17;3.90;;;;;;;-4.13;100.00;95928.44;10457802;28;20227;-64
2021/12/25 11:39:40;;;;;;;6.47;4.33;;;;;;;-4.13;100.00;95933.56;10457492;28;20221;-64
2021/12/25 11:44:45;;;;;;;6.00;4.50;;;;;;;-4.00;100.00;95924.28;10439697;28;20197;-65
2021/12/25 11:49:53;;;;;;;10.93;4.97;;;;;;;-4.05;100.00;95933.94;10457074;28;20274;-66
2021/12/25 11:59:54;;;;;;;6.97;4.03;;;;;;;-4.39;100.00;95928.16;10456441;28;20207;-66
2021/12/25 12:05:27;;;;;;;10.63;4.80;;;;;;;-4.28;100.00;95942.91;10455066;28;20261;-64
2021/12/25 12:10:46;;;;;;;8.03;4.30;;;;;;;-4.29;100.00;95941.25;10456842;28;20195;-65
2021/12/25 12:16:06;;;;;;;8.83;3.77;;;;;;;-4.51;100.00;95939.06;10414754;28;20319;-65
2021/12/25 12:21:35;;;;;;;8.23;3.47;;;;;;;-4.44;100.00;95947.19;10437965;28;20286;-64
2021/12/25 12:26:45;;;;;;;6.10;3.70;;;;;;;-4.42;100.00;95950.53;10455637;28;20295;-64
2021/12/25 12:31:48;;;;;;;7.23;4.10;;;;;;;-4.56;100.00;95946.16;10455237;28;20206;-64
2021/12/25 12:36:48;;;;;;;5.83;3.60;;;;;;;-4.62;100.00;95949.00;10455299;28;20211;-65
2021/12/25 12:41:53;;;;;;;6.17;3.47;;;;;;;-4.51;100.00;95951.84;10455045;28;20203;-62
2021/12/25 12:47:00;;;;;;;8.20;3.07;;;;;;;-4.39;100.00;95960.56;10454737;28;20728;-62
2021/12/25 12:52:38;;;;;;;10.07;4.20;;;;;;;-4.39;100.00;95963.94;10454477;28;20224;-64
2021/12/25 12:57:41;;;;;;;8.57;2.83;;;;;;;-4.58;100.00;95968.41;10453906;28;20226;-64
2021/12/25 13:02:47;;;;;;;5.03;2.43;;;;;;;-4.53;100.00;95963.88;10453822;28;20677;-64
2021/12/25 13:07:50;;;;;;;5.67;3.13;;;;;;;-4.59;100.00;95964.22;10453543;28;20643;-64
2021/12/25 13:12:51;;;;;;;4.23;2.80;;;;;;;-4.40;100.00;95969.16;10452959;28;20218;-64
2021/12/25 13:17:57;;;;;;;4.30;2.57;;;;;;;-4.43;100.00;95972.69;10452734;28;20298;-65
2021/12/25 13:22:58;;;;;;;5.13;2.60;;;;;;;-4.62;100.00;95974.56;10453129;28;20192;-64
2021/12/25 13:28:01;;;;;;;4.60;2.80;;;;;;;-4.72;100.00;95987.03;10452911;28;20223;-61
2021/12/25 13:33:11;;;;;;;3.63;2.47;;;;;;;-4.58;100.00;95982.03;10453362;28;20223;-63
2021/12/25 13:38:12;;;;;;;7.17;4.57;;;;;;;-4.59;100.00;95988.03;10453054;28;20698;-63
2021/12/25 13:43:12;;;;;;;6.60;3.60;;;;;;;-4.61;100.00;95992.41;10452799;28;20177;-62
2021/12/25 13:48:13;;;;;;;8.70;2.90;;;;;;;-4.58;100.00;95992.25;10452027;28;20208;-63
2021/12/25 13:53:19;;;;;;;4.53;2.50;;;;;;;-4.64;100.00;96001.94;10452027;28;20376;-62
2021/12/25 13:58:20;;;;;;;3.77;2.63;;;;;;;-4.83;100.00;95987.59;10452295;28;20210;-63
2021/12/25 14:03:23;;;;;;;5.87;2.70;;;;;;;-5.15;100.00;96000.28;10452416;28;20187;-61
2021/12/25 14:08:25;;;;;;;10.90;5.17;;;;;;;-5.32;100.00;96005.44;10452192;28;20592;-63
2021/12/25 14:13:28;;;;;;;6.67;4.30;;;;;;;-5.44;100.00;96002.56;10452355;28;20689;-64
2021/12/25 14:18:34;;;;;;;6.00;4.13;;;;;;;-5.77;100.00;96016.09;10451767;28;20603;-63
2021/12/25 14:23:35;;;;;;;7.47;4.53;;;;;;;-5.96;100.00;96021.22;10453247;28;20564;-63
2021/12/25 14:28:37;;;;;;;7.40;4.97;;;;;;;-6.16;100.00;96029.03;10446870;28;20700;-66
2021/12/25 14:33:40;;;;;;;8.73;5.20;;;;;;;-6.35;100.00;96041.81;10483914;28;20220;-65
2021/12/25 14:38:43;;;;;;;12.37;7.17;;;;;;;-6.50;100.00;96041.59;10464760;28;20242;-64
2021/12/25 14:43:44;;;;;;;9.57;5.40;;;;;;;-6.67;100.00;96044.06;10482926;28;20182;-66
2021/12/25 14:48:44;;;;;;;8.67;5.70;;;;;;;-6.76;100.00;96047.03;10483109;28;20213;-66
2021/12/25 14:53:51;;;;;;;10.03;6.20;;;;;;;-6.87;100.00;96057.69;10470927;28;20571;-65
2021/12/25 14:58:58;;;;;;;7.53;5.13;;;;;;;-7.02;100.00;96069.34;10459290;28;20219;-65
2021/12/25 15:04:05;;;;;;;10.07;5.30;;;;;;;-7.02;100.00;96059.97;10459275;28;20665;-65
2021/12/25 15:09:15;;;;;;;9.03;5.07;;;;;;;-7.02;100.00;96062.50;10441335;28;20214;-62
2021/12/25 15:14:18;;;;;;;8.40;5.10;;;;;;;-7.20;100.00;96059.06;10458657;28;20221;-64
2021/12/25 15:19:57;;;;;;;6.47;4.57;;;;;;;-7.49;100.00;96067.03;10484218;22;20585;-61
2021/12/25 15:32:33;;;;;;;8.17;4.50;;;;;;;-8.00;100.00;96069.06;10289170;28;20277;-62
2021/12/25 15:37:38;;;;;;;9.00;5.00;;;;;;;-8.13;100.00;96082.25;10241740;28;20231;-60
2021/12/25 15:42:39;;;;;;;13.97;5.27;;;;;;;-8.32;100.00;96089.69;10290241;28;20235;-61
2021/12/25 15:47:41;;;;;;;7.37;5.30;;;;;;;-8.48;100.00;96097.09;10356779;28;20312;-61
2021/12/25 15:52:42;;;;;;;8.43;5.20;;;;;;;-8.47;100.00;96092.84;10415798;28;20225;-62
2021/12/25 15:57:56;;;;;;;16.47;8.13;;;;;;;-8.68;100.00;96096.97;10415460;28;20227;-62
2021/12/25 16:02:57;;;;;;;17.80;9.27;;;;;;;-8.99;100.00;96095.50;10414549;28;20292;-61
2021/12/25 16:08:25;;;;;;;;;;;;;;;;;;;;;
2021/12/25 16:13:50;;;;;;;22.10;11.63;;;;;;;-9.96;100.00;96106.28;10402408;28;20220;-61
2021/12/25 16:18:50;;;;;;;11.47;6.37;;;;;;;-9.99;100.00;96102.13;10414418;28;20241;-60
2021/12/25 16:24:46;;;;;;;8.47;6.80;;;;;;;-10.81;100.00;96103.66;10414926;28;20192;-60
2021/12/25 16:31:16;;;;;;;10.97;5.70;;;;;;;-11.25;100.00;96113.25;10208592;29;20229;-60
2021/12/25 16:43:34;;;;;;;10.07;5.70;;;;;;;-12.02;100.00;96119.34;10414730;28;20191;-59
2021/12/25 16:48:35;;;;;;;9.03;5.60;;;;;;;-12.07;100.00;96120.28;10409475;28;20608;-60
2021/12/25 16:53:36;;;;;;;11.50;5.80;;;;;;;-12.20;100.00;96119.75;10404852;28;20222;-61
2021/12/25 16:58:36;;;;;;;12.60;5.30;;;;;;;-12.15;100.00;96127.22;10395372;28;20976;-62
2021/12/25 17:03:37;;;;;;;14.40;7.27;;;;;;;-12.43;100.00;96128.63;10390005;28;20671;-58
2021/12/25 17:08:38;;;;;;;13.63;6.93;;;;;;;-12.75;100.00;96120.00;10392281;28;20240;-59
2021/12/25 17:13:39;;;;;;;10.87;6.57;;;;;;;-12.66;100.00;96129.09;10390467;28;20215;-58
2021/12/25 17:18:39;;;;;;;9.97;5.87;;;;;;;-12.81;100.00;96135.25;10397442;28;20238;-60
2021/12/25 17:23:40;;;;;;;14.43;6.80;;;;;;;-13.05;100.00;96130.69;10395264;28;20197;-61
2021/12/25 17:28:40;;;;;;;13.23;7.23;;;;;;;-13.08;100.00;96146.69;10389807;28;20296;-60
2021/12/25 17:33:42;;;;;;;9.00;5.67;;;;;;;-13.09;100.00;96142.53;10391293;28;20215;-60
2021/12/25 17:39:32;;;;;;;10.90;5.87;;;;;;;-13.17;100.00;96141.81;10411022;28;20216;-61
2021/12/25 17:45:35;;;;;;;10.13;5.47;;;;;;;-13.28;100.00;96137.78;10359519;28;20311;-61
2021/12/25 17:51:01;;;;;;;10.47;5.57;;;;;;;-13.17;100.00;96136.78;10401586;28;20221;-61
2021/12/25 17:56:02;;;;;;;7.37;4.80;;;;;;;-13.33;100.00;96141.28;10410251;28;20227;-62
2021/12/25 18:01:03;;;;;;;15.57;8.60;;;;;;;-13.46;100.00;96140.66;10409820;28;20231;-62
2021/12/25 18:12:38;;;;;;;22.93;10.17;;;;;;;-13.17;100.00;96135.09;10293638;28;20232;-61
2021/12/25 18:17:40;;;;;;;25.60;9.97;;;;;;;-13.48;100.00;96138.16;10410529;28;20329;-60
2021/12/25 18:23:11;;;;;;;24.00;12.60;;;;;;;-13.38;100.00;96138.84;10410702;28;20200;-62
2021/12/25 18:28:11;;;;;;;17.47;9.40;;;;;;;-13.41;100.00;96148.13;10409354;28;20214;-60
2021/12/25 18:33:12;;;;;;;22.73;9.93;;;;;;;-13.47;100.00;96149.91;10410400;28;20220;-61
2021/12/25 18:39:13;;;;;;;21.47;9.30;;;;;;;-13.42;100.00;96147.31;10410514;28;20708;-61
2021/12/25 18:44:13;;;;;;;34.30;12.80;;;;;;;-13.06;100.00;96139.09;10347080;28;20214;-61
2021/12/25 18:49:13;;;;;;;24.33;10.67;;;;;;;-13.33;100.00;96152.16;10410402;28;20214;-59
2021/12/25 18:55:50;;;;;;;15.83;6.77;;;;;;;-13.22;100.00;96153.69;10410081;28;20322;-62
2021/12/25 19:00:35;;;;;;;11.40;5.80;;;;;;;-12.98;100.00;96152.41;10397699;28;20228;-62
2021/12/25 19:05:36;;;;;;;35.43;12.37;;;;;;;-12.90;100.00;96149.75;10408659;28;20182;-60
2021/12/25 19:10:37;;;;;;;18.00;8.17;;;;;;;-13.00;100.00;96154.97;10402945;28;20305;-60
2021/12/25 19:15:38;;;;;;;26.53;10.40;;;;;;;-13.22;100.00;96151.97;10394995;28;20358;-60
2021/12/25 19:21:14;;;;;;;13.77;6.00;;;;;;;-13.31;100.00;96160.50;10389086;28;20234;-62
2021/12/25 19:26:14;;;;;;;5.83;3.77;;;;;;;-13.29;100.00;96161.34;10329088;28;20259;-58
2021/12/25 19:31:15;;;;;;;8.23;4.47;;;;;;;-13.31;100.00;96163.03;10390642;28;20725;-60
2021/12/25 19:36:16;;;;;;;8.07;4.23;;;;;;;-13.28;100.00;96165.50;10403698;28;20232;-60
2021/12/25 19:41:17;;;;;;;8.57;3.60;;;;;;;-13.29;100.00;96166.38;10413968;28;20558;-62
2021/12/25 19:47:03;;;;;;;4.33;2.83;;;;;;;-13.40;100.00;96169.97;10414018;28;20211;-61
2021/12/25 19:52:06;;;;;;;5.17;3.43;;;;;;;-13.33;100.00;96167.28;10412205;28;20189;-63
2021/12/25 19:57:08;;;;;;;8.53;3.67;;;;;;;-13.07;100.00;96166.00;10413387;28;20696;-61
2021/12/25 20:02:44;;;;;;;4.53;2.97;;;;;;;-12.66;100.00;96154.31;10413386;28;20229;-61
2021/12/25 20:08:41;;;;;;;;;;;;;;;;;;;;;
2021/12/25 20:14:07;;;;;;;5.33;1.80;;;;;;;-12.19;100.00;96161.78;10383269;28;20697;-62
2021/12/25 20:19:07;;;;;;;6.60;3.70;;;;;;;-12.11;100.00;96175.06;10378336;28;1001303;-62
2021/12/25 20:25:02;;;;;;;4.67;2.70;;;;;;;-12.07;100.00;96173.31;10413626;28;20655;-61
2021/12/25 20:30:29;;;;;;;3.63;2.33;;;;;;;-12.06;100.00;96169.94;10263423;28;20747;-59
2021/12/25 20:35:30;;;;;;;2.30;2.00;;;;;;;-12.10;100.00;96169.16;10406109;28;20237;-60
2021/12/25 20:40:33;;;;;;;1.43;1.33;;;;;;;-12.01;100.00;96160.56;10413407;28;20700;-59
2021/12/25 20:45:46;;;;;;;8.03;3.13;;;;;;;-11.96;100.00;96155.41;10414238;28;20192;-59
2021/12/25 20:57:16;;;;;;;5.20;2.80;;;;;;;-11.93;100.00;96150.28;10407489;28;20229;-60
2021/12/25 21:03:03;;;;;;;2.47;1.90;;;;;;;-12.01;100.00;96152.97;10413153;28;20205;-60
2021/12/25 21:14:28;;;;;;;4.13;2.40;;;;;;;-11.99;100.00;96142.84;10412279;28;20222;-60
2021/12/25 21:25:42;;;;;;;2.30;1.20;;;;;;;-11.89;100.00;96136.69;10398306;28;20281;-60
2021/12/25 21:30:43;;;;;;;2.13;1.70;;;;;;;-11.78;100.00;96133.94;10411365;28;20697;-63
2021/12/25 21:36:10;;;;;;;2.77;1.80;;;;;;;-11.80;100.00;96136.50;10411984;28;20264;-62
2021/12/25 21:41:18;;;;;;;5.00;2.70;;;;;;;-12.16;100.00;96140.69;10409212;28;20721;-62
2021/12/25 21:46:19;;;;;;;7.40;2.60;;;;;;;-12.50;100.00;96139.69;10411231;28;20705;-61
2021/12/25 21:51:19;;;;;;;4.03;2.13;;;;;;;-12.40;100.00;96141.19;10365629;28;20195;-62
2021/12/25 21:56:20;;;;;;;6.60;1.90;;;;;;;-12.44;100.00;96138.75;10370299;28;20357;-62
2021/12/25 22:01:23;;;;;;;2.90;1.90;;;;;;;-12.54;100.00;96133.03;10372021;28;20548;-61
2021/12/25 22:06:24;;;;;;;3.83;2.50;;;;;;;-12.47;100.00;96129.53;10370521;28;20766;-60
2021/12/25 22:12:04;;;;;;;7.00;1.70;;;;;;;-12.23;100.00;96143.34;10357265;28;20206;-62
2021/12/25 22:17:05;;;;;;;2.13;1.60;;;;;;;-12.14;100.00;96142.31;10369759;28;20235;-61
2021/12/25 22:22:05;;;;;;;0.70;0.70;;;;;;;-12.15;100.00;96132.25;10370529;28;20262;-62
2021/12/25 22:27:56;;;;;;;4.00;1.83;;;;;;;-12.31;100.00;96125.03;10370759;28;20216;-62
2021/12/25 22:39:05;;;;;;;4.40;2.67;;;;;;;-12.71;100.00;96125.00;10224516;29;20678;-62
2021/12/25 22:44:05;;;;;;;7.73;2.60;;;;;;;-12.88;100.00;96126.16;10337645;28;20298;-61
2021/12/25 22:55:33;;;;;;;5.53;2.47;;;;;;;-13.10;100.00;96119.00;10377544;28;20647;-63
2021/12/25 23:01:12;;;;;;;3.87;2.13;;;;;;;-13.07;100.00;96104.69;10377913;28;20246;-62
2021/12/25 23:06:12;;;;;;;1.80;1.30;;;;;;;-13.20;100.00;96109.09;10377308;28;20206;-61
2021/12/25 23:11:14;;;;;;;2.90;2.17;;;;;;;-13.17;100.00;96109.06;10376734;28;20198;-61
2021/12/25 23:16:15;;;;;;;2.90;2.13;;;;;;;-12.99;100.00;96110.41;10376275;28;20781;-62
2021/12/25 23:21:16;;;;;;;8.17;2.40;;;;;;;-13.04;100.00;96107.16;10376282;28;20307;-62
2021/12/25 23:27:09;;;;;;;7.83;2.53;;;;;;;-13.00;100.00;96101.16;10376413;28;20205;-63
2021/12/25 23:32:52;;;;;;;5.43;2.47;;;;;;;-13.11;100.00;96108.94;10372910;28;20787;-62
2021/12/25 23:38:34;;;;;;;4.13;2.33;;;;;;;-13.10;100.00;96103.88;10376611;28;20236;-62
2021/12/25 23:50:15;;;;;;;4.77;2.33;;;;;;;-13.40;100.00;96106.97;10274850;28;20707;-62
2021/12/25 23:55:17;;;;;;;3.07;2.27;;;;;;;-13.75;100.00;96101.69;10375085;28;20209;-62
